Time;durP1;ratioP1;P1;durP2;ratioP2;P2;SDS_P1;SDS_P2;PMS_P1;PMS_P2;Temp;Humidity;BMP_temperature;BMP_pressure;BME280_temperature;BME280_humidity;BME280_pressure;Samples;Min_cycle;Max_cycle;Signal;HPM_P1;HPM_P2
2024/03/04 00:01:14;;;;;;;14.60;7.50;;;;;;;-147.86;100.00;-17609.17;105409;1259;71741;-55
2024/03/04 00:03:41;;;;;;;21.40;8.10;;;;;;;-147.86;100.00;-17609.17;105447;1259;63165;-55
2024/03/04 00:06:10;;;;;;;16.90;7.30;;;;;;;-147.86;100.00;-17609.17;105571;1262;71443;-55
2024/03/04 00:08:38;;;;;;;18.00;7.80;;;;;;;-147.86;100.00;-17609.17;105454;1257;59663;-54
2024/03/04 00:11:06;;;;;;;15.50;7.50;;;;;;;-147.86;100.00;-17609.17;105532;1259;59634;-52
2024/03/04 00:13:35;;;;;;;17.90;8.00;;;;;;;-147.86;100.00;-17609.17;105471;1257;71784;-51
2024/03/04 00:16:05;;;;;;;20.20;7.80;;;;;;;-147.86;100.00;-17609.17;105530;1258;64433;-53
2024/03/04 00:18:32;;;;;;;16.30;8.00;;;;;;;-147.86;100.00;-17609.17;105414;1264;72748;-56
2024/03/04 00:21:00;;;;;;;14.90;7.20;;;;;;;-147.86;100.00;-17609.17;105373;1258;60826;-54
2024/03/04 00:23:28;;;;;;;16.80;7.40;;;;;;;-147.86;100.00;-17609.17;105361;1263;59711;-55
2024/03/04 01:03:28;;;;;;;21.30;7.70;;;;;;;-147.86;100.00;-15950.66;103546;1286;600417;-55
2024/03/04 01:05:58;;;;;;;18.90;7.70;;;;;;;-147.86;100.00;-17609.17;105099;1264;59774;-51
2024/03/04 01:09:23;;;;;;;14.00;7.80;;;;;;;-147.86;100.00;-17609.17;102710;1292;600325;-51
2024/03/04 01:11:51;;;;;;;14.70;7.60;;;;;;;-147.86;100.00;-17609.17;105071;1264;59321;-54
2024/03/04 01:14:20;;;;;;;17.80;8.10;;;;;;;-147.86;100.00;-17609.17;105072;1270;60088;-53
2024/03/04 01:16:49;;;;;;;13.70;8.30;;;;;;;-147.86;100.00;-17609.17;105015;1270;71249;-48
2024/03/04 01:19:17;;;;;;;15.50;7.00;;;;;;;-147.86;100.00;-17609.17;105070;1270;64495;-53
2024/03/04 01:21:47;;;;;;;20.80;7.70;;;;;;;-147.86;100.00;-17609.17;105070;1269;71409;-56
2024/03/04 01:24:17;;;;;;;21.90;7.60;;;;;;;-147.86;100.00;-17609.17;104943;1267;59622;-53
2024/03/04 01:26:44;;;;;;;16.30;7.70;;;;;;;-147.86;100.00;-17609.17;105254;1267;59564;-55
2024/03/04 01:29:12;;;;;;;20.30;8.00;;;;;;;-147.86;100.00;-17609.17;105190;1267;73482;-55
2024/03/04 01:31:40;;;;;;;17.70;7.70;;;;;;;-147.86;100.00;-17609.17;105206;1264;63949;-55
2024/03/04 01:34:08;;;;;;;15.90;7.00;;;;;;;-147.86;100.00;-17609.17;105178;1266;71628;-54
2024/03/04 01:36:36;;;;;;;12.70;8.10;;;;;;;-147.86;100.00;-17609.17;105218;1264;59701;-54
2024/03/04 01:39:04;;;;;;;16.20;7.40;;;;;;;-147.86;100.00;-17609.17;105199;1267;59714;-55
2024/03/04 01:41:32;;;;;;;20.50;7.50;;;;;;;-147.86;100.00;-17609.17;105172;1264;72252;-54
2024/03/04 01:43:59;;;;;;;20.30;8.60;;;;;;;-147.86;100.00;-17609.17;105324;1260;63233;-53
2024/03/04 01:46:28;;;;;;;14.30;8.20;;;;;;;-147.86;100.00;-17609.17;105478;1264;72653;-55
2024/03/04 01:48:56;;;;;;;21.10;8.80;;;;;;;-147.86;100.00;-17609.17;105492;1263;59675;-54
2024/03/04 01:51:24;;;;;;;17.20;9.00;;;;;;;-147.86;100.00;-17609.17;105368;1261;61200;-57
2024/03/04 01:53:52;;;;;;;15.60;7.90;;;;;;;-147.86;100.00;-17609.17;105507;1264;70998;-55
2024/03/04 01:56:20;;;;;;;21.70;9.20;;;;;;;-147.86;100.00;-17609.17;105271;1260;63120;-52
2024/03/04 01:58:48;;;;;;;18.20;8.50;;;;;;;-147.86;100.00;-17609.17;105401;1260;72626;-54
2024/03/04 02:01:16;;;;;;;21.90;8.90;;;;;;;-147.86;100.00;-17609.17;105326;1260;59759;-53
2024/03/04 02:03:44;;;;;;;14.70;7.80;;;;;;;-147.86;100.00;-17609.17;105286;1266;59647;-53
2024/03/04 02:06:12;;;;;;;15.40;8.30;;;;;;;-147.86;100.00;-17609.17;105176;1261;71783;-55
2024/03/04 02:08:39;;;;;;;12.70;7.30;;;;;;;-147.86;100.00;-17609.17;105212;1265;63153;-54
2024/03/04 02:11:07;;;;;;;15.20;7.30;;;;;;;-147.86;100.00;-17609.17;105230;1260;71408;-55
2024/03/04 02:13:37;;;;;;;19.70;7.80;;;;;;;-147.86;100.00;-17609.17;105239;1267;59810;-52
2024/03/04 02:16:05;;;;;;;15.20;8.10;;;;;;;-147.86;100.00;-17609.17;105257;1260;60017;-51
2024/03/04 02:18:34;;;;;;;16.20;8.00;;;;;;;-147.86;100.00;-17609.17;105223;1261;71744;-53
2024/03/04 02:21:02;;;;;;;23.00;8.30;;;;;;;-147.86;100.00;-17609.17;105215;1263;63108;-53
2024/03/04 02:23:30;;;;;;;21.80;8.20;;;;;;;-147.86;100.00;-17609.17;105307;1260;72676;-54
2024/03/04 02:25:57;;;;;;;12.60;7.50;;;;;;;-147.86;100.00;-17609.17;105244;1264;60772;-54
2024/03/04 02:28:27;;;;;;;18.10;9.00;;;;;;;-147.86;100.00;-17609.17;105208;1266;59698;-52
2024/03/04 02:31:00;;;;;;;24.80;8.10;;;;;;;-147.86;100.00;-17609.17;105233;1265;73081;-56
2024/03/04 02:33:28;;;;;;;16.10;7.80;;;;;;;-147.86;100.00;-17609.17;105240;1260;63414;-55
2024/03/04 02:35:56;;;;;;;20.90;7.80;;;;;;;-147.86;100.00;-17609.17;105200;1263;72068;-50
2024/03/04 02:38:24;;;;;;;15.50;7.20;;;;;;;-147.86;100.00;-17609.17;105236;1261;59676;-56
2024/03/04 02:40:53;;;;;;;13.20;7.80;;;;;;;-147.86;100.00;-17609.17;105202;1267;59561;-55
2024/03/04 02:43:21;;;;;;;15.20;7.80;;;;;;;-147.86;100.00;-17609.17;105250;1265;73116;-54
2024/03/04 02:45:49;;;;;;;14.70;7.30;;;;;;;-147.86;100.00;-17609.17;105230;1263;63108;-55
2024/03/04 02:48:17;;;;;;;16.80;7.50;;;;;;;-147.86;100.00;-17609.17;105228;1266;71930;-55
2024/03/04 02:50:45;;;;;;;16.80;8.90;;;;;;;-147.86;100.00;-17609.17;105260;1262;60128;-55
2024/03/04 03:04:28;;;;;;;11.00;7.50;;;;;;;-147.86;100.00;-14773.02;102833;1294;600285;-50
2024/03/04 03:06:57;;;;;;;16.60;7.60;;;;;;;-147.86;100.00;-17609.17;105071;1269;60870;-51
2024/03/04 03:09:25;;;;;;;24.90;8.60;;;;;;;-147.86;100.00;-17609.17;105084;1269;59497;-57
2024/03/04 03:11:55;;;;;;;16.20;8.40;;;;;;;-147.86;100.00;-17609.17;105055;1265;71220;-49
2024/03/04 03:14:22;;;;;;;19.50;8.90;;;;;;;-147.86;100.00;-17609.17;105022;1264;63004;-51
2024/03/04 03:16:50;;;;;;;16.80;9.50;;;;;;;-147.86;100.00;-17609.17;105052;1269;72723;-48
2024/03/04 03:19:25;;;;;;;18.20;9.50;;;;;;;-147.86;100.00;-17609.17;104934;1263;434566;-51
2024/03/04 03:21:53;;;;;;;22.00;10.00;;;;;;;-147.86;100.00;-17609.17;105263;1266;59351;-56
2024/03/04 03:24:23;;;;;;;18.70;9.80;;;;;;;-147.86;100.00;-17609.17;105239;1267;71077;-56
2024/03/04 03:26:50;;;;;;;19.00;9.40;;;;;;;-147.86;100.00;-17609.17;105219;1266;64346;-50
2024/03/04 03:29:18;;;;;;;26.40;9.90;;;;;;;-147.86;100.00;-17609.17;105167;1264;71115;-54
2024/03/04 03:31:46;;;;;;;17.60;8.70;;;;;;;-147.86;100.00;-17609.17;105601;1257;59956;-57
2024/03/04 03:34:14;;;;;;;23.90;9.50;;;;;;;-147.86;100.00;-17609.17;105653;1257;60024;-55
2024/03/04 04:03:21;;;;;;;16.60;8.10;;;;;;;-147.86;100.00;-14689.44;103081;1289;600602;-53
2024/03/04 04:05:49;;;;;;;16.60;8.30;;;;;;;-147.86;100.00;-17609.17;105083;1264;59714;-54
2024/03/04 04:08:16;;;;;;;13.70;7.70;;;;;;;-147.86;100.00;-17609.17;104841;1263;59996;-53
2024/03/04 04:10:44;;;;;;;18.00;8.80;;;;;;;-147.86;100.00;-17609.17;104871;1263;71025;-56
2024/03/04 04:13:12;;;;;;;18.60;9.10;;;;;;;-147.86;100.00;-17609.17;104851;1263;63335;-50
2024/03/04 04:15:39;;;;;;;16.80;8.30;;;;;;;-147.86;100.00;-17609.17;104876;1266;71382;-51
2024/03/04 04:18:08;;;;;;;14.70;8.50;;;;;;;-147.86;100.00;-17609.17;104936;1263;260060;-54
2024/03/04 04:20:36;;;;;;;16.10;8.70;;;;;;;-147.86;100.00;-17609.17;105199;1263;59973;-54
2024/03/04 04:23:04;;;;;;;17.60;9.00;;;;;;;-147.86;100.00;-17609.17;105625;1260;71021;-57
2024/03/04 04:25:31;;;;;;;17.80;9.00;;;;;;;-147.86;100.00;-17609.17;105702;1257;63150;-56
2024/03/04 04:27:59;;;;;;;18.60;9.10;;;;;;;-147.86;100.00;-17609.17;105602;1257;71393;-51
2024/03/04 04:30:27;;;;;;;19.00;8.30;;;;;;;-147.86;100.00;-17609.17;105643;1256;59756;-54
2024/03/04 04:32:55;;;;;;;19.40;7.80;;;;;;;-147.86;100.00;-17609.17;105645;1260;59695;-55
2024/03/04 04:35:24;;;;;;;18.50;8.70;;;;;;;-147.86;100.00;-17609.17;105614;1262;72783;-51
2024/03/04 04:37:52;;;;;;;22.80;8.80;;;;;;;-147.86;100.00;-17609.17;105674;1255;62980;-56
2024/03/04 04:40:20;;;;;;;19.80;8.80;;;;;;;-147.86;100.00;-17609.17;105651;1256;71721;-53
2024/03/04 04:42:48;;;;;;;20.80;9.20;;;;;;;-147.86;100.00;-17609.17;105639;1257;59749;-55
2024/03/04 04:45:17;;;;;;;18.40;8.80;;;;;;;-147.86;100.00;-17609.17;105626;1257;59968;-53
2024/03/04 04:47:45;;;;;;;16.40;8.30;;;;;;;-147.86;100.00;-17609.17;105638;1255;71767;-55
2024/03/04 04:50:13;;;;;;;17.80;8.50;;;;;;;-147.86;100.00;-17609.17;105665;1256;63214;-56
2024/03/04 04:52:41;;;;;;;17.50;8.20;;;;;;;-147.86;100.00;-17609.17;105647;1257;72608;-55
2024/03/04 04:55:09;;;;;;;14.80;7.80;;;;;;;-147.86;100.00;-17609.17;105624;1262;59738;-55
2024/03/04 04:57:39;;;;;;;16.60;8.80;;;;;;;-147.86;100.00;-17609.17;105633;1262;59653;-55
2024/03/04 05:00:10;;;;;;;18.00;8.60;;;;;;;-147.86;100.00;-17609.17;105597;1262;73013;-54
2024/03/04 05:02:39;;;;;;;19.10;8.60;;;;;;;-147.86;100.00;-17609.17;105609;1262;63649;-55
2024/03/04 05:05:08;;;;;;;15.40;7.90;;;;;;;-147.86;100.00;-17609.17;105606;1257;71728;-54
2024/03/04 05:07:38;;;;;;;18.90;7.90;;;;;;;-147.86;100.00;-17609.17;105687;1254;59841;-51
2024/03/04 05:10:06;;;;;;;18.10;7.70;;;;;;;-147.86;100.00;-17609.17;105701;1259;60880;-52
2024/03/04 05:12:34;;;;;;;14.90;8.30;;;;;;;-147.86;100.00;-17609.17;105644;1259;71557;-57
2024/03/04 05:15:04;;;;;;;13.40;7.70;;;;;;;-147.86;100.00;-17609.17;105734;1254;62664;-53
2024/03/04 05:17:34;;;;;;;13.80;7.80;;;;;;;-147.86;100.00;-17609.17;105643;1257;71659;-52
2024/03/04 05:20:06;;;;;;;16.70;7.90;;;;;;;-147.86;100.00;-17609.17;105669;1255;59730;-56
2024/03/04 05:22:34;;;;;;;12.40;7.30;;;;;;;-147.86;100.00;-17609.17;105669;1258;60017;-55
2024/03/04 05:25:02;;;;;;;11.40;7.10;;;;;;;-147.86;100.00;-17609.17;105679;1254;71825;-51
2024/03/04 05:27:32;;;;;;;16.00;7.60;;;;;;;-147.86;100.00;-17609.17;105679;1259;63082;-56
2024/03/04 05:30:00;;;;;;;17.40;7.70;;;;;;;-147.86;100.00;-17609.17;105673;1256;72665;-52
2024/03/04 05:32:28;;;;;;;13.40;7.60;;;;;;;-147.86;100.00;-17609.17;105682;1256;59521;-51
2024/03/04 05:34:56;;;;;;;20.00;7.60;;;;;;;-147.86;100.00;-17609.17;105642;1259;59606;-53
2024/03/04 05:37:24;;;;;;;19.80;7.70;;;;;;;-147.86;100.00;-17609.17;105642;1259;72275;-54
2024/03/04 05:39:52;;;;;;;13.10;7.30;;;;;;;-147.86;100.00;-17609.17;105712;1259;63095;-54
2024/03/04 05:42:20;;;;;;;12.40;7.20;;;;;;;-147.86;100.00;-17609.17;105653;1254;72716;-51
2024/03/04 05:44:48;;;;;;;14.50;8.30;;;;;;;-147.86;100.00;-17609.17;105640;1257;59757;-56
2024/03/04 05:47:15;;;;;;;12.10;7.40;;;;;;;-147.86;100.00;-17609.17;105671;1259;60447;-54
2024/03/04 05:49:43;;;;;;;17.20;7.20;;;;;;;-147.86;100.00;-17609.17;105666;1259;73007;-57
2024/03/04 05:52:11;;;;;;;10.20;5.80;;;;;;;-147.86;100.00;-17609.17;105652;1259;64386;-54
2024/03/04 05:54:39;;;;;;;16.20;7.60;;;;;;;-147.86;100.00;-17609.17;105664;1259;71589;-53
2024/03/04 05:57:07;;;;;;;11.30;6.70;;;;;;;-147.86;100.00;-17609.17;105667;1253;59669;-52
2024/03/04 05:59:34;;;;;;;14.40;7.50;;;;;;;-147.86;100.00;-17609.17;105649;1253;59987;-57
2024/03/04 06:02:02;;;;;;;10.30;6.90;;;;;;;-147.86;100.00;-17609.17;105626;1259;71894;-56
2024/03/04 06:04:30;;;;;;;16.00;7.50;;;;;;;-147.86;100.00;-17609.17;105692;1259;64766;-52
2024/03/04 06:07:01;;;;;;;18.50;8.60;;;;;;;-147.86;100.00;-17609.17;105597;1262;74975;-51
2024/03/04 06:09:29;;;;;;;17.30;7.80;;;;;;;-147.86;100.00;-17609.17;105625;1257;59689;-50
2024/03/04 06:11:57;;;;;;;14.90;8.40;;;;;;;-147.86;100.00;-17609.17;105667;1255;59757;-52
2024/03/04 06:14:28;;;;;;;27.30;8.20;;;;;;;-147.86;100.00;-17609.17;105673;1259;72625;-52
2024/03/04 06:16:56;;;;;;;17.80;7.40;;;;;;;-147.86;100.00;-17609.17;105724;1259;64335;-55
2024/03/04 06:19:23;;;;;;;19.90;7.20;;;;;;;-147.86;100.00;-17609.17;105663;1257;72679;-54
2024/03/04 06:21:51;;;;;;;15.90;7.60;;;;;;;-147.86;100.00;-17609.17;105749;1257;60081;-54
2024/03/04 07:04:30;;;;;;;9.50;6.30;;;;;;;-147.86;100.00;-17609.17;103028;1291;600397;-50
2024/03/04 07:06:58;;;;;;;15.80;7.50;;;;;;;-147.86;100.00;-17609.17;105038;1269;60849;-48
2024/03/04 07:09:26;;;;;;;15.10;7.40;;;;;;;-147.86;100.00;-17609.17;105056;1264;59895;-48
2024/03/04 07:11:54;;;;;;;19.90;7.30;;;;;;;-147.86;100.00;-17609.17;105045;1269;70043;-52
2024/03/04 07:14:22;;;;;;;17.40;8.10;;;;;;;-147.86;100.00;-17609.17;104825;1270;63342;-50
2024/03/04 07:16:50;;;;;;;13.70;6.70;;;;;;;-147.86;100.00;-17609.17;104963;1264;72655;-51
2024/03/04 07:19:17;;;;;;;23.40;7.00;;;;;;;-147.86;100.00;-17609.17;104786;1264;285602;-51
2024/03/04 07:21:45;;;;;;;15.90;7.70;;;;;;;-147.86;100.00;-17609.17;105177;1262;60310;-53
2024/03/04 07:24:13;;;;;;;12.70;6.80;;;;;;;-147.86;100.00;-17609.17;105195;1262;72080;-54
2024/03/04 07:26:40;;;;;;;15.80;7.40;;;;;;;-147.86;100.00;-17609.17;105176;1266;64304;-53
2024/03/04 07:29:08;;;;;;;14.40;7.00;;;;;;;-147.86;100.00;-17609.17;105177;1264;73822;-50
2024/03/04 07:31:47;;;;;;;17.90;7.70;;;;;;;-147.86;100.00;-17609.17;105188;1264;61789;-55
2024/03/04 07:34:15;;;;;;;14.30;7.00;;;;;;;-147.86;100.00;-17609.17;105221;1266;59649;-51
2024/03/04 07:36:43;;;;;;;11.80;6.70;;;;;;;-147.86;100.00;-17609.17;105216;1264;72679;-55
2024/03/04 07:39:11;;;;;;;14.90;7.60;;;;;;;-147.86;100.00;-17609.17;105180;1267;66606;-56
2024/03/04 07:41:39;;;;;;;17.70;7.60;;;;;;;-147.86;100.00;-17609.17;105236;1264;72421;-53
2024/03/04 07:44:06;;;;;;;17.80;7.00;;;;;;;-147.86;100.00;-17609.17;105165;1264;59743;-53
2024/03/04 07:46:34;;;;;;;13.40;6.90;;;;;;;-147.86;100.00;-17609.17;105191;1266;59614;-54
2024/03/04 07:49:02;;;;;;;15.10;7.50;;;;;;;-147.86;100.00;-17609.17;105410;1263;74984;-55
2024/03/04 07:51:30;;;;;;;18.60;6.90;;;;;;;-147.86;100.00;-17609.17;105387;1259;63569;-55
2024/03/04 07:53:57;;;;;;;17.10;7.00;;;;;;;-147.86;100.00;-17609.17;105385;1264;73054;-56
2024/03/04 07:56:25;;;;;;;19.30;7.60;;;;;;;-147.86;100.00;-17609.17;105368;1261;59714;-55
2024/03/04 07:58:53;;;;;;;14.70;7.50;;;;;;;-147.86;100.00;-17609.17;105389;1261;60083;-49
2024/03/04 08:01:21;;;;;;;21.40;7.60;;;;;;;-147.86;100.00;-17609.17;105366;1264;72918;-51
2024/03/04 08:03:48;;;;;;;14.40;7.80;;;;;;;-147.86;100.00;-17609.17;105306;1259;63274;-53
2024/03/04 08:06:16;;;;;;;18.90;7.50;;;;;;;-147.86;100.00;-17609.17;105412;1264;74711;-55
2024/03/04 08:08:44;;;;;;;21.90;10.40;;;;;;;-147.86;100.00;-17609.17;105283;1260;59634;-50
2024/03/04 08:11:12;;;;;;;22.30;9.10;;;;;;;-147.86;100.00;-17609.17;105305;1263;61080;-52
2024/03/04 08:13:40;;;;;;;20.00;8.90;;;;;;;-147.86;100.00;-17609.17;105333;1260;71966;-50
2024/03/04 08:16:08;;;;;;;19.10;9.90;;;;;;;-147.86;100.00;-17609.17;105281;1264;66718;-56
2024/03/04 08:18:36;;;;;;;50.70;26.70;;;;;;;-147.86;100.00;-17609.17;105255;1260;74854;-51
2024/03/04 08:21:04;;;;;;;28.90;14.50;;;;;;;-147.86;100.00;-17609.17;105248;1264;59774;-53
2024/03/04 08:23:33;;;;;;;19.60;9.90;;;;;;;-147.86;100.00;-17609.17;105294;1264;59673;-51
2024/03/04 08:26:01;;;;;;;22.80;10.00;;;;;;;-147.86;100.00;-17609.17;105265;1264;75096;-56
2024/03/04 08:28:29;;;;;;;25.80;9.30;;;;;;;-147.86;100.00;-17609.17;105304;1264;66622;-54
2024/03/04 08:31:04;;;;;;;19.10;7.50;;;;;;;-147.86;100.00;-17609.17;105230;1264;74993;-54
2024/03/04 08:33:33;;;;;;;27.00;11.00;;;;;;;-147.86;100.00;-17609.17;105304;1264;61633;-55
2024/03/04 08:36:01;;;;;;;17.50;8.50;;;;;;;-147.86;100.00;-17559.25;105278;1260;59775;-55
2024/03/04 08:38:28;;;;;;;28.00;12.90;;;;;;;-147.86;100.00;-15830.87;105220;1261;72927;-55
2024/03/04 08:40:56;;;;;;;21.30;10.50;;;;;;;-147.86;98.39;-9753.67;105254;1264;64603;-55
2024/03/04 08:43:25;;;;;;;26.50;9.30;;;;;;;-147.86;98.18;-5648.27;105246;1260;74916;-54
2024/03/04 08:45:53;;;;;;;35.00;11.00;;;;;;;-147.86;98.74;-5697.77;105267;1264;59903;-52
2024/03/04 08:48:22;;;;;;;25.40;8.80;;;;;;;-147.86;99.58;-7924.42;105922;1252;61088;-58
2024/03/04 08:50:50;;;;;;;27.00;11.20;;;;;;;-147.86;99.04;-7726.53;105891;1251;73253;-56
2024/03/04 08:53:18;;;;;;;22.60;10.90;;;;;;;-147.86;98.76;-6192.70;105911;1254;66656;-54
2024/03/04 08:55:46;;;;;;;22.60;8.40;;;;;;;-147.86;98.04;-4212.55;106014;1257;72973;-52
2024/03/04 08:58:15;;;;;;;27.60;8.60;;;;;;;-147.86;98.31;-3865.99;105894;1257;59808;-52
2024/03/04 09:00:42;;;;;;;24.50;10.30;;;;;;;-147.86;96.67;-496.42;105901;1257;59810;-50
2024/03/04 09:03:10;;;;;;;21.70;8.30;;;;;;;-147.86;95.05;8285.50;105897;1251;72449;-55
2024/03/04 09:05:41;;;;;;;23.40;7.80;;;;;;;-147.86;94.99;10720.28;105916;1254;64713;-54
2024/03/04 09:08:11;;;;;;;25.00;8.30;;;;;;;-147.86;95.00;12858.22;105906;1257;73871;-53
2024/03/04 09:10:40;;;;;;;13.30;7.00;;;;;;;-147.86;95.56;10322.65;105950;1257;61199;-51
2024/03/04 09:13:08;;;;;;;21.00;9.10;;;;;;;-147.86;93.65;16193.15;105967;1251;62197;-55
2024/03/04 09:15:36;;;;;;;15.60;7.20;;;;;;;-147.86;93.36;21820.73;105909;1251;74315;-51
2024/03/04 09:18:05;;;;;;;16.40;7.30;;;;;;;-147.86;92.84;26639.63;105948;1251;63110;-51
2024/03/04 09:20:33;;;;;;;23.70;7.90;;;;;;;-147.86;93.93;22967.50;105889;1251;72909;-52
2024/03/04 09:23:01;;;;;;;23.20;8.00;;;;;;;-147.86;94.66;18681.77;105865;1256;59689;-55
2024/03/04 09:25:29;;;;;;;25.60;7.50;;;;;;;-147.86;95.09;15694.18;105952;1251;61235;-54
2024/03/04 09:27:57;;;;;;;29.30;11.20;;;;;;;-147.86;95.11;13355.61;105916;1251;74058;-53
2024/03/04 09:30:26;;;;;;;21.50;8.60;;;;;;;-147.86;94.81;14997.36;105911;1257;66376;-48
2024/03/04 09:32:55;;;;;;;28.10;8.10;;;;;;;-147.86;94.71;15345.74;105948;1251;72463;-53
2024/03/04 09:35:23;;;;;;;31.10;10.30;;;;;;;-147.86;92.95;21270.27;105921;1251;60003;-54
2024/03/04 09:37:51;;;;;;;19.80;8.40;;;;;;;-147.86;89.82;38322.21;105910;1251;62073;-55
2024/03/04 09:40:19;;;;;;;19.90;8.30;;;;;;;-147.86;90.09;41932.23;105946;1256;73343;-52
2024/03/04 09:42:50;;;;;;;21.60;8.10;;;;;;;-147.86;88.69;43415.74;105928;1257;67114;-53
2024/03/04 09:45:19;;;;;;;21.90;7.10;;;;;;;-147.86;89.23;43875.08;105705;1254;71291;-54
2024/03/04 09:47:51;;;;;;;23.50;7.10;;;;;;;-147.86;89.28;43913.86;105870;1257;59755;-54
2024/03/04 09:50:19;;;;;;;14.10;6.50;;;;;;;-147.86;89.38;43742.71;105945;1251;59908;-49
2024/03/04 09:52:47;;;;;;;20.50;8.60;;;;;;;-147.86;85.29;45011.01;105746;1251;75115;-55
2024/03/04 09:55:16;;;;;;;24.00;7.20;;;;;;;-147.86;84.27;45392.60;105766;1251;63046;-53
2024/03/04 09:57:45;;;;;;;22.40;7.00;;;;;;;-147.86;81.21;45569.30;105921;1251;75690;-54
2024/03/04 10:00:16;;;;;;;23.70;7.90;;;;;;;-147.86;81.20;45640.21;105953;1257;59545;-56
2024/03/04 10:02:44;;;;;;;13.30;6.90;;;;;;;-147.86;84.07;45647.27;105931;1251;59737;-57
2024/03/04 10:05:13;;;;;;;27.00;7.20;;;;;;;-147.86;81.56;45648.45;105896;1257;75559;-55
2024/03/04 10:07:41;;;;;;;28.80;7.70;;;;;;;-147.86;79.68;45703.70;105964;1251;66680;-52
2024/03/04 10:10:10;;;;;;;14.90;6.40;;;;;;;-147.86;80.44;45730.34;105916;1251;75673;-51
2024/03/04 10:12:39;;;;;;;14.70;6.80;;;;;;;-147.86;79.79;45742.09;105936;1257;59778;-53
2024/03/04 10:15:09;;;;;;;20.20;7.20;;;;;;;-147.86;79.12;45750.32;105993;1257;60376;-55
2024/03/04 10:17:38;;;;;;;19.40;7.30;;;;;;;-147.86;79.82;45779.71;105963;1251;74703;-56
2024/03/04 10:20:15;;;;;;;21.30;7.40;;;;;;;-147.86;80.71;45776.57;105944;1256;65011;-55
2024/03/04 10:22:43;;;;;;;25.50;7.20;;;;;;;-147.86;81.52;45776.57;105918;1256;72682;-53
2024/03/04 10:25:13;;;;;;;22.90;6.30;;;;;;;-147.86;83.31;45782.45;105908;1257;59736;-56
2024/03/04 10:27:49;;;;;;;17.50;8.00;;;;;;;-147.86;81.33;45782.05;105995;1257;59736;-54
2024/03/04 10:30:21;;;;;;;18.80;7.10;;;;;;;-147.86;81.15;45798.52;105925;1251;72233;-55
2024/03/04 10:32:57;;;;;;;19.70;7.00;;;;;;;-147.86;80.72;45807.13;105882;1257;66312;-51
2024/03/04 10:35:26;;;;;;;20.80;6.30;;;;;;;-147.86;80.89;45849.46;105967;1251;73961;-54
2024/03/04 10:38:02;;;;;;;16.30;6.90;;;;;;;-147.86;79.15;45868.26;105942;1256;61476;-55
2024/03/04 10:40:33;;;;;;;20.60;8.20;;;;;;;-147.86;75.45;45911.76;105938;1251;59656;-55
2024/03/04 10:43:03;;;;;;;25.80;7.60;;;;;;;-147.86;75.31;45963.09;105933;1252;75295;-54
2024/03/04 10:45:35;;;;;;;24.10;8.20;;;;;;;-147.86;72.96;46010.89;105933;1251;64679;-53
2024/03/04 10:48:04;;;;;;;13.10;6.10;;;;;;;-147.86;72.70;46077.51;105863;1256;74557;-53
2024/03/04 10:50:33;;;;;;;20.00;7.50;;;;;;;-147.86;72.23;46109.25;105966;1252;59714;-55
2024/03/04 10:53:01;;;;;;;25.80;6.50;;;;;;;-147.86;71.12;46149.22;105965;1251;61344;-52
2024/03/04 10:55:30;;;;;;;25.70;6.50;;;;;;;-147.86;70.37;46208.39;105957;1256;73781;-55
2024/03/04 10:58:01;;;;;;;18.40;7.00;;;;;;;-147.86;69.10;46255.02;105917;1256;66682;-54
2024/03/04 11:00:32;;;;;;;61.90;28.00;;;;;;;-147.86;64.34;46321.26;105900;1256;73262;-56
2024/03/04 11:03:01;;;;;;;37.20;19.30;;;;;;;-147.86;63.70;46383.57;105914;1257;60047;-59
2024/03/04 11:05:33;;;;;;;25.50;8.50;;;;;;;-147.86;64.77;46440.00;105943;1251;61287;-51
2024/03/04 11:08:16;;;;;;;25.90;8.10;;;;;;;-147.86;66.50;46500.35;105926;1251;75257;-57
2024/03/04 11:10:48;;;;;;;16.00;6.30;;;;;;;-147.86;67.81;46512.50;105952;1257;64345;-51
2024/03/04 11:13:22;;;;;;;30.90;9.10;;;;;;;-147.86;66.27;46535.62;105923;1251;72678;-51
2024/03/04 11:16:16;;;;;;;21.70;7.90;;;;;;;-147.86;65.60;46583.83;105909;1257;62330;-54
2024/03/04 11:19:25;;;;;;;21.90;7.50;;;;;;;-147.86;66.04;46639.09;105854;1257;60549;-54
2024/03/04 11:21:53;;;;;;;20.60;6.90;;;;;;;-147.86;66.00;46682.98;105940;1251;75730;-50
2024/03/04 11:24:21;;;;;;;17.20;6.00;;;;;;;-147.86;68.54;46722.18;105946;1256;65223;-50
2024/03/04 11:26:49;;;;;;;22.70;8.10;;;;;;;-147.86;71.03;46697.09;105685;1251;72345;-53
2024/03/04 11:29:17;;;;;;;19.70;7.50;;;;;;;-147.86;66.81;46675.93;105977;1256;61018;-56
2024/03/04 11:31:53;;;;;;;21.20;9.30;;;;;;;-147.86;66.17;46727.27;105755;1251;60481;-53
2024/03/04 11:34:21;;;;;;;;;;;;;;;-147.86;66.67;46756.66;105926;1251;73416;-54
2024/03/04 11:36:53;;;;;;;18.80;6.80;;;;;;;-147.86;67.45;46764.89;105945;1257;64364;-56
2024/03/04 11:39:21;;;;;;;22.50;6.70;;;;;;;-147.86;68.16;46771.16;105947;1251;73064;-52
2024/03/04 11:41:51;;;;;;;25.40;6.30;;;;;;;-147.86;66.22;46786.06;105971;1256;61846;-52
2024/03/04 11:44:23;;;;;;;20.50;7.20;;;;;;;-147.86;65.75;46813.89;105919;1251;60682;-58
2024/03/04 11:46:51;;;;;;;24.10;7.70;;;;;;;-147.86;64.58;46848.38;105732;1258;76165;-57
2024/03/04 11:49:30;;;;;;;19.00;7.40;;;;;;;-147.86;64.73;46888.35;105669;1259;64947;-55
2024/03/04 11:52:10;;;;;;;14.50;6.80;;;;;;;-147.86;64.60;46933.04;105902;1257;72960;-52
2024/03/04 11:54:39;;;;;;;19.20;7.30;;;;;;;-147.86;64.04;46983.99;105941;1254;62311;-54
2024/03/04 11:57:07;;;;;;;21.10;6.80;;;;;;;-147.86;64.03;47007.90;105939;1256;60344;-52
2024/03/04 11:59:36;;;;;;;25.10;7.10;;;;;;;-147.86;65.13;47058.46;105909;1257;73484;-51
2024/03/04 12:02:10;;;;;;;21.90;6.40;;;;;;;-147.86;65.16;47060.42;105974;1257;64582;-53
2024/03/04 12:04:42;;;;;;;17.80;6.60;;;;;;;-147.86;65.65;47089.82;105911;1251;72950;-54
2024/03/04 12:07:10;;;;;;;15.40;6.80;;;;;;;-147.86;64.96;47083.94;105885;1252;61101;-53
2024/03/04 12:09:40;;;;;;;20.80;7.30;;;;;;;-147.86;64.06;47114.52;105877;1251;60555;-54
2024/03/04 12:12:27;;;;;;;13.90;6.80;;;;;;;-147.86;64.10;47136.46;105881;1251;73984;-54
2024/03/04 12:14:56;;;;;;;19.10;6.70;;;;;;;-147.86;63.83;47179.58;105894;1254;64230;-56
2024/03/04 12:17:23;;;;;;;12.50;6.40;;;;;;;-147.86;65.64;47201.53;105906;1251;73916;-54
2024/03/04 12:19:55;;;;;;;22.50;6.70;;;;;;;-147.86;65.94;47215.25;105899;1256;62135;-55
2024/03/04 12:22:27;;;;;;;27.00;6.90;;;;;;;-147.86;65.39;47201.53;105939;1251;60519;-55
2024/03/04 12:25:06;;;;;;;30.90;6.90;;;;;;;-147.86;64.36;47214.07;105952;1251;76087;-54
2024/03/04 12:27:35;;;;;;;20.40;6.60;;;;;;;-147.86;64.46;47266.99;105901;1251;66258;-51
2024/03/04 12:30:07;;;;;;;20.20;6.90;;;;;;;-147.86;66.34;47262.68;105882;1251;72493;-53
2024/03/04 12:32:36;;;;;;;27.60;9.30;;;;;;;-147.86;67.19;47254.45;105907;1251;60801;-57
2024/03/04 12:35:23;;;;;;;30.50;8.10;;;;;;;-147.86;67.03;47241.12;105885;1251;62041;-52
2024/03/04 12:37:54;;;;;;;22.40;7.90;;;;;;;-147.86;66.10;47227.79;105956;1257;74694;-56
2024/03/04 12:40:22;;;;;;;19.10;8.20;;;;;;;-147.86;67.01;47225.84;105986;1251;65309;-53
2024/03/04 12:42:53;;;;;;;15.10;5.90;;;;;;;-147.86;67.65;47212.89;105900;1251;72533;-54
2024/03/04 12:45:22;;;;;;;13.50;5.60;;;;;;;-147.86;66.31;47197.22;105918;1257;61138;-50
2024/03/04 12:47:51;;;;;;;17.50;6.20;;;;;;;-147.86;62.72;47231.32;105924;1251;60360;-52
2024/03/04 12:50:20;;;;;;;17.00;7.10;;;;;;;-147.86;61.67;47294.82;105905;1256;75653;-53
2024/03/04 12:52:48;;;;;;;14.40;6.90;;;;;;;-147.86;61.74;47364.59;105667;1256;65572;-57
2024/03/04 12:55:17;;;;;;;16.80;6.60;;;;;;;-147.86;63.66;47414.38;105752;1251;72568;-54
2024/03/04 12:57:47;;;;;;;22.30;7.00;;;;;;;-147.86;65.61;47430.05;105799;1251;60542;-54